createdAt,value
2023-04-07T00:02:02.742Z,100.00
2023-04-07T00:04:29.539Z,100.00
2023-04-07T00:06:57.054Z,100.00
2023-04-07T00:09:23.602Z,100.00
2023-04-07T00:11:51.252Z,100.00
2023-04-07T00:14:17.917Z,100.00
2023-04-07T00:16:44.486Z,100.00
2023-04-07T00:19:11.010Z,100.00
2023-04-07T00:21:37.568Z,100.00
2023-04-07T00:24:04.398Z,100.00
2023-04-07T00:26:32.967Z,100.00
2023-04-07T00:28:59.908Z,100.00
2023-04-07T00:31:26.684Z,100.00
2023-04-07T00:33:53.429Z,100.00
2023-04-07T00:36:20.337Z,100.00
2023-04-07T00:38:49.189Z,100.00
2023-04-07T00:41:16.017Z,100.00
2023-04-07T00:43:42.617Z,100.00
2023-04-07T00:46:09.231Z,100.00
2023-04-07T00:48:37.114Z,100.00
2023-04-07T00:51:04.005Z,100.00
2023-04-07T00:53:30.656Z,100.00
2023-04-07T00:55:57.435Z,100.00
2023-04-07T00:58:23.939Z,100.00
2023-04-07T01:01:00.185Z,100.00
2023-04-07T01:03:51.964Z,100.00
2023-04-07T01:06:24.396Z,100.00
2023-04-07T01:09:11.381Z,100.00
2023-04-07T01:11:53.271Z,100.00
2023-04-07T01:14:21.087Z,100.00
2023-04-07T01:16:50.827Z,100.00
2023-04-07T01:19:38.206Z,100.00
2023-04-07T01:22:12.923Z,100.00
2023-04-07T01:24:55.458Z,100.00
2023-04-07T01:27:45.672Z,100.00
2023-04-07T01:30:16.108Z,100.00
2023-04-07T01:32:47.060Z,100.00
2023-04-07T01:35:14.837Z,100.00
2023-04-07T01:37:43.030Z,100.00
2023-04-07T01:40:10.344Z,100.00
2023-04-07T01:42:39.683Z,100.00
2023-04-07T01:45:08.061Z,100.00
2023-04-07T01:47:37.621Z,100.00
2023-04-07T01:50:05.868Z,100.00
2023-04-07T01:52:36.618Z,100.00
2023-04-07T01:55:07.426Z,100.00
2023-04-07T01:57:33.961Z,100.00
2023-04-07T02:00:02.762Z,100.00
2023-04-07T02:02:29.448Z,100.00
2023-04-07T02:04:58.637Z,100.00
2023-04-07T02:07:31.458Z,100.00
2023-04-07T02:10:01.026Z,100.00
2023-04-07T02:12:31.210Z,100.00
2023-04-07T02:14:58.927Z,100.00
2023-04-07T02:17:27.253Z,100.00
2023-04-07T02:19:56.409Z,100.00
2023-04-07T02:22:22.991Z,100.00
2023-04-07T02:24:49.549Z,100.00
2023-04-07T02:27:16.115Z,100.00
2023-04-07T02:29:42.693Z,100.00
2023-04-07T02:32:09.391Z,100.00
2023-04-07T02:34:36.518Z,100.00
2023-04-07T02:37:03.368Z,100.00
2023-04-07T02:39:29.941Z,100.00
2023-04-07T02:41:56.801Z,100.00
2023-04-07T02:44:23.360Z,100.00
2023-04-07T02:46:49.932Z,100.00
2023-04-07T02:49:16.523Z,100.00
2023-04-07T02:51:43.090Z,100.00
2023-04-07T02:54:09.609Z,100.00
2023-04-07T02:56:36.146Z,100.00
2023-04-07T02:59:02.714Z,100.00
2023-04-07T03:01:29.362Z,100.00
2023-04-07T03:03:56.377Z,100.00
2023-04-07T03:06:23.239Z,100.00
2023-04-07T03:08:49.754Z,100.00
2023-04-07T03:11:16.277Z,100.00
2023-04-07T03:13:42.898Z,100.00
2023-04-07T03:16:09.463Z,100.00
2023-04-07T03:18:36.200Z,100.00
2023-04-07T03:21:03.112Z,100.00
2023-04-07T03:23:29.729Z,100.00
2023-04-07T03:25:58.065Z,100.00
2023-04-07T03:28:24.651Z,100.00
2023-04-07T03:30:51.350Z,100.00
2023-04-07T03:33:17.999Z,100.00
2023-04-07T03:35:44.591Z,100.00
2023-04-07T03:38:11.291Z,100.00
2023-04-07T03:40:37.808Z,100.00
2023-04-07T03:43:04.407Z,100.00
2023-04-07T03:45:31.157Z,100.00
2023-04-07T03:47:57.742Z,100.00
2023-04-07T03:50:24.334Z,100.00
2023-04-07T03:52:51.215Z,100.00
2023-04-07T03:55:17.772Z,100.00
2023-04-07T03:57:44.361Z,100.00
2023-04-07T04:00:11.516Z,100.00
2023-04-07T04:02:38.228Z,100.00
2023-04-07T04:05:05.629Z,100.00
2023-04-07T04:07:33.645Z,100.00
2023-04-07T04:10:00.527Z,100.00
2023-04-07T04:12:27.373Z,100.00
2023-04-07T04:14:53.928Z,100.00
2023-04-07T04:17:20.460Z,100.00
2023-04-07T04:19:47.210Z,100.00
2023-04-07T04:22:14.024Z,100.00
2023-04-07T04:24:41.843Z,100.00
2023-04-07T04:27:08.516Z,100.00
2023-04-07T04:29:35.034Z,100.00
2023-04-07T04:32:01.545Z,100.00
2023-04-07T04:34:28.188Z,100.00
2023-04-07T04:36:54.757Z,100.00
2023-04-07T04:39:21.372Z,100.00
2023-04-07T04:41:47.965Z,100.00
2023-04-07T04:44:14.536Z,100.00
2023-04-07T04:46:41.152Z,100.00
2023-04-07T04:49:07.786Z,100.00
2023-04-07T04:51:34.360Z,100.00
2023-04-07T04:54:00.915Z,100.00
2023-04-07T04:56:27.520Z,100.00
2023-04-07T04:58:54.020Z,100.00
2023-04-07T05:01:20.689Z,100.00
2023-04-07T05:03:47.507Z,100.00
2023-04-07T05:06:14.287Z,100.00
2023-04-07T05:08:41.021Z,100.00
2023-04-07T05:11:07.564Z,100.00
2023-04-07T05:13:34.245Z,100.00
2023-04-07T05:16:01.354Z,100.00
2023-04-07T05:18:27.989Z,100.00
2023-04-07T05:20:54.509Z,100.00
2023-04-07T05:23:21.106Z,100.00
2023-04-07T05:25:47.774Z,100.00
2023-04-07T05:28:14.335Z,100.00
2023-04-07T05:30:40.880Z,100.00
2023-04-07T05:33:07.478Z,100.00
2023-04-07T05:35:34.103Z,100.00
2023-04-07T05:38:00.735Z,100.00
2023-04-07T05:40:27.286Z,100.00
2023-04-07T05:42:53.847Z,100.00
2023-04-07T05:45:20.534Z,100.00
2023-04-07T05:47:50.098Z,100.00
2023-04-07T05:50:17.602Z,100.00
2023-04-07T05:52:44.126Z,100.00
2023-04-07T05:55:10.882Z,100.00
2023-04-07T05:57:37.412Z,100.00
2023-04-07T06:00:04.746Z,100.00
2023-04-07T06:02:31.418Z,100.00
2023-04-07T06:04:58.081Z,100.00
2023-04-07T06:07:24.652Z,100.00
2023-04-07T06:09:51.475Z,100.00
2023-04-07T06:12:18.061Z,100.00
2023-04-07T06:14:51.482Z,100.00
2023-04-07T06:17:18.156Z,100.00
2023-04-07T06:19:44.965Z,100.00
2023-04-07T06:22:11.540Z,100.00
2023-04-07T06:24:38.055Z,100.00
2023-04-07T06:27:04.672Z,100.00
2023-04-07T06:29:33.450Z,100.00
2023-04-07T06:32:00.864Z,100.00
2023-04-07T06:34:27.386Z,100.00
2023-04-07T06:36:54.039Z,100.00
2023-04-07T06:39:20.581Z,100.00
2023-04-07T06:41:47.125Z,100.00
2023-04-07T06:44:13.688Z,100.00
2023-04-07T06:46:41.772Z,100.00
2023-04-07T06:49:08.536Z,100.00
2023-04-07T06:51:35.072Z,100.00
2023-04-07T06:54:01.733Z,100.00
2023-04-07T06:56:28.315Z,100.00
2023-04-07T06:58:54.904Z,100.00
2023-04-07T07:01:21.571Z,100.00
2023-04-07T07:03:48.287Z,100.00
2023-04-07T07:06:15.480Z,100.00
2023-04-07T07:08:41.978Z,100.00
2023-04-07T07:11:08.576Z,100.00
2023-04-07T07:13:35.466Z,100.00
2023-04-07T07:16:02.028Z,100.00
2023-04-07T07:18:30.434Z,100.00
2023-04-07T07:20:58.273Z,100.00
2023-04-07T07:23:24.783Z,100.00
2023-04-07T07:25:51.541Z,100.00
2023-04-07T07:28:18.482Z,100.00
2023-04-07T07:30:45.262Z,100.00
2023-04-07T07:33:11.842Z,100.00
2023-04-07T07:35:38.664Z,100.00
2023-04-07T07:38:05.393Z,100.00
2023-04-07T07:40:32.283Z,100.00
2023-04-07T07:42:59.806Z,100.00
2023-04-07T07:45:26.417Z,100.00
2023-04-07T07:47:53.048Z,100.00
2023-04-07T07:50:19.751Z,100.00
2023-04-07T07:52:46.290Z,100.00
2023-04-07T07:55:12.847Z,100.00
2023-04-07T07:57:39.377Z,100.00
2023-04-07T08:00:06.964Z,100.00
2023-04-07T08:02:34.073Z,100.00
2023-04-07T08:05:01.032Z,100.00
2023-04-07T08:07:27.659Z,100.00
2023-04-07T08:09:54.190Z,100.00
2023-04-07T08:12:21.535Z,100.00
2023-04-07T08:14:49.314Z,100.00
2023-04-07T08:17:16.444Z,100.00
2023-04-07T08:19:42.961Z,100.00
2023-04-07T08:22:09.479Z,100.00
2023-04-07T08:24:35.976Z,100.00
2023-04-07T08:27:02.533Z,100.00
2023-04-07T08:29:30.624Z,100.00
2023-04-07T08:31:57.833Z,100.00
2023-04-07T08:34:24.375Z,100.00
2023-04-07T08:36:50.909Z,100.00
2023-04-07T08:39:18.007Z,100.00
2023-04-07T08:41:45.322Z,100.00
2023-04-07T08:44:14.180Z,100.00
2023-04-07T08:46:41.236Z,100.00
2023-04-07T08:49:10.537Z,100.00
2023-04-07T08:51:42.765Z,100.00
2023-04-07T08:54:14.477Z,100.00
2023-04-07T08:56:42.594Z,100.00
2023-04-07T08:59:11.952Z,100.00
2023-04-07T09:01:39.423Z,100.00
2023-04-07T09:04:07.513Z,100.00
2023-04-07T09:06:35.474Z,100.00
2023-04-07T09:09:03.211Z,100.00
2023-04-07T09:11:30.982Z,100.00
2023-04-07T09:13:58.985Z,100.00
2023-04-07T09:16:29.167Z,100.00
2023-04-07T09:18:55.741Z,100.00
2023-04-07T09:21:22.346Z,100.00
2023-04-07T09:23:50.190Z,100.00
2023-04-07T09:26:25.147Z,100.00
2023-04-07T09:28:57.470Z,100.00
2023-04-07T09:31:43.195Z,100.00
2023-04-07T09:34:32.717Z,100.00
2023-04-07T09:36:59.886Z,100.00
2023-04-07T09:39:26.783Z,100.00
2023-04-07T09:41:53.464Z,100.00
2023-04-07T09:44:21.021Z,100.00
2023-04-07T09:46:58.517Z,100.00
2023-04-07T09:49:26.318Z,100.00
2023-04-07T09:52:09.906Z,100.00
2023-04-07T09:54:41.767Z,100.00
2023-04-07T09:57:09.785Z,100.00
2023-04-07T09:59:38.490Z,100.00
2023-04-07T10:02:06.250Z,100.00
2023-04-07T10:04:32.940Z,100.00
2023-04-07T10:07:00.373Z,100.00
2023-04-07T10:09:28.267Z,100.00
2023-04-07T10:11:58.087Z,100.00
2023-04-07T10:14:28.516Z,100.00
2023-04-07T10:16:55.576Z,100.00
2023-04-07T10:19:23.156Z,100.00
2023-04-07T10:21:53.347Z,100.00
2023-04-07T10:24:25.742Z,100.00
2023-04-07T10:26:56.896Z,100.00
2023-04-07T10:29:24.464Z,100.00
2023-04-07T10:31:52.495Z,100.00
2023-04-07T10:34:48.703Z,100.00
2023-04-07T10:37:17.725Z,100.00
2023-04-07T10:39:44.342Z,100.00
2023-04-07T10:42:41.589Z,100.00
2023-04-07T10:45:12.910Z,97.97
2023-04-07T10:47:57.853Z,87.92
2023-04-07T10:50:25.785Z,89.90
2023-04-07T10:53:06.095Z,93.19
2023-04-07T10:55:40.164Z,92.77
2023-04-07T10:58:25.081Z,92.36
2023-04-07T11:00:57.568Z,99.02
2023-04-07T11:03:25.747Z,100.00
2023-04-07T11:05:52.564Z,99.36
2023-04-07T11:08:39.099Z,85.35
2023-04-07T11:11:10.191Z,76.66
2023-04-07T11:13:43.071Z,82.57
2023-04-07T11:16:10.437Z,76.83
2023-04-07T11:18:37.607Z,76.51
2023-04-07T11:21:08.277Z,76.64
2023-04-07T11:23:52.885Z,72.92
2023-04-07T11:26:19.490Z,66.87
2023-04-07T11:28:49.423Z,68.28
2023-04-07T11:31:27.347Z,65.51
2023-04-07T11:34:02.320Z,54.98
2023-04-07T11:36:59.478Z,49.41
2023-04-07T11:39:33.541Z,45.43
2023-04-07T11:42:00.101Z,44.79
2023-04-07T11:44:26.818Z,44.72
2023-04-07T11:46:59.313Z,48.33
2023-04-07T11:49:31.886Z,52.99
2023-04-07T11:52:03.821Z,53.34
2023-04-07T11:54:43.414Z,53.81
2023-04-07T11:57:12.594Z,55.39
2023-04-07T11:59:42.597Z,54.31
2023-04-07T12:02:09.622Z,54.37
2023-04-07T12:04:37.871Z,55.76
2023-04-07T12:07:09.798Z,48.94
2023-04-07T12:09:37.874Z,46.21
2023-04-07T12:12:06.427Z,38.51
2023-04-07T12:14:33.092Z,31.23
2023-04-07T12:17:01.910Z,28.94
2023-04-07T12:19:29.772Z,27.06
2023-04-07T12:21:57.191Z,27.83
2023-04-07T12:24:23.998Z,28.22
2023-04-07T12:26:50.728Z,29.04
2023-04-07T12:29:19.889Z,31.74
2023-04-07T12:31:48.044Z,32.22
2023-04-07T12:34:16.336Z,29.87
2023-04-07T12:36:42.909Z,28.69
2023-04-07T12:39:09.595Z,25.86
2023-04-07T12:41:36.337Z,23.47
2023-04-07T12:44:02.838Z,22.83
2023-04-07T12:46:29.473Z,21.44
2023-04-07T12:48:56.137Z,20.16
2023-04-07T12:51:22.870Z,19.05
2023-04-07T12:53:49.723Z,18.54
2023-04-07T12:56:16.542Z,17.76
2023-04-07T12:58:43.086Z,20.34
2023-04-07T13:01:09.856Z,22.97
2023-04-07T13:03:37.261Z,22.77
2023-04-07T13:06:04.522Z,22.88
2023-04-07T13:08:31.132Z,22.71
2023-04-07T13:10:57.668Z,21.30
2023-04-07T13:13:24.488Z,19.79
2023-04-07T13:15:51.630Z,19.33
2023-04-07T13:18:18.215Z,18.02
2023-04-07T13:20:54.430Z,17.65
2023-04-07T13:23:42.177Z,16.18
2023-04-07T13:26:10.072Z,15.97
2023-04-07T13:28:36.590Z,15.56
2023-04-07T13:31:03.309Z,14.84
2023-04-07T13:33:29.873Z,15.41
2023-04-07T13:35:56.449Z,16.09
2023-04-07T13:38:23.023Z,16.27
2023-04-07T13:40:49.669Z,16.35
2023-04-07T13:43:18.520Z,16.67
2023-04-07T13:45:45.067Z,15.95
2023-04-07T13:48:11.735Z,16.81
2023-04-07T13:50:38.976Z,14.91
2023-04-07T13:53:05.554Z,16.18
2023-04-07T13:55:32.159Z,17.72
2023-04-07T13:57:58.698Z,17.07
2023-04-07T14:00:25.458Z,15.70
2023-04-07T14:02:52.187Z,14.95
2023-04-07T14:05:18.767Z,16.10
2023-04-07T14:07:45.352Z,16.73
2023-04-07T14:10:11.949Z,16.30
2023-04-07T14:12:38.517Z,15.61
2023-04-07T14:15:05.628Z,16.39
2023-04-07T14:17:32.141Z,16.44
2023-04-07T14:19:58.722Z,17.15
2023-04-07T14:22:25.392Z,19.95
2023-04-07T14:24:52.146Z,20.46
2023-04-07T14:27:21.850Z,19.41
2023-04-07T14:29:48.653Z,17.60
2023-04-07T14:32:16.382Z,16.82
2023-04-07T14:34:43.003Z,17.64
2023-04-07T14:37:09.550Z,16.79
2023-04-07T14:39:37.133Z,18.12
2023-04-07T14:42:04.568Z,21.13
2023-04-07T14:44:31.711Z,24.49
2023-04-07T14:46:58.241Z,26.22
2023-04-07T14:49:28.230Z,28.33
2023-04-07T14:51:54.812Z,30.37
2023-04-07T14:54:21.626Z,31.66
2023-04-07T14:56:48.223Z,33.51
2023-04-07T14:59:14.796Z,35.51
2023-04-07T15:01:41.497Z,36.25
2023-04-07T15:04:08.191Z,37.33
2023-04-07T15:06:34.779Z,37.22
2023-04-07T15:09:01.438Z,38.85
2023-04-07T15:11:28.011Z,37.97
2023-04-07T15:13:54.823Z,33.70
2023-04-07T15:16:21.468Z,29.89
2023-04-07T15:18:48.350Z,31.21
2023-04-07T15:21:15.633Z,32.80
2023-04-07T15:23:42.348Z,34.29
2023-04-07T15:26:09.742Z,35.87
2023-04-07T15:28:36.480Z,37.39
2023-04-07T15:31:03.412Z,38.60
2023-04-07T15:33:30.047Z,40.74
2023-04-07T15:35:56.884Z,41.94
2023-04-07T15:38:23.406Z,43.82
2023-04-07T15:40:50.006Z,44.82
2023-04-07T15:43:16.543Z,45.77
2023-04-07T15:45:44.503Z,47.29
2023-04-07T15:48:12.071Z,48.97
2023-04-07T15:50:38.704Z,50.95
2023-04-07T15:53:06.168Z,51.70
2023-04-07T15:55:33.993Z,53.20
2023-04-07T15:58:01.114Z,54.47
2023-04-07T16:00:28.637Z,55.24
2023-04-07T16:02:55.713Z,57.16
2023-04-07T16:05:22.605Z,59.84
2023-04-07T16:07:49.166Z,63.19
2023-04-07T16:10:19.668Z,66.14
2023-04-07T16:12:47.057Z,68.16
2023-04-07T16:15:18.432Z,70.08
2023-04-07T16:17:49.798Z,71.71
2023-04-07T16:20:16.466Z,73.85
2023-04-07T16:22:45.741Z,73.22
2023-04-07T16:25:12.554Z,75.71
2023-04-07T16:27:39.069Z,75.97
2023-04-07T16:30:06.320Z,77.62
2023-04-07T16:32:33.881Z,79.57
2023-04-07T16:35:00.972Z,82.72
2023-04-07T16:37:27.759Z,85.31
2023-04-07T16:39:56.401Z,86.99
2023-04-07T16:42:25.833Z,90.66
2023-04-07T16:44:52.408Z,91.66
2023-04-07T16:47:18.922Z,94.88
2023-04-07T16:49:45.558Z,96.02
2023-04-07T16:52:12.268Z,98.60
2023-04-07T16:54:38.786Z,100.00
2023-04-07T16:57:05.538Z,100.00
2023-04-07T16:59:32.486Z,100.00
2023-04-07T17:01:59.126Z,100.00
2023-04-07T17:04:25.972Z,100.00
2023-04-07T17:06:52.609Z,100.00
2023-04-07T17:09:19.906Z,100.00
2023-04-07T17:11:46.416Z,100.00
2023-04-07T17:14:13.185Z,100.00
2023-04-07T17:16:39.713Z,100.00
2023-04-07T17:19:06.286Z,100.00
2023-04-07T17:21:32.872Z,100.00
2023-04-07T17:23:59.479Z,100.00
2023-04-07T17:26:26.129Z,100.00
2023-04-07T17:28:52.729Z,100.00
2023-04-07T17:31:19.267Z,100.00
2023-04-07T17:33:47.681Z,100.00
2023-04-07T17:36:14.735Z,100.00
2023-04-07T17:38:41.337Z,100.00
2023-04-07T17:41:07.874Z,100.00
2023-04-07T17:43:34.437Z,100.00
2023-04-07T17:46:01.344Z,100.00
2023-04-07T17:48:27.883Z,100.00
2023-04-07T17:50:54.448Z,100.00
2023-04-07T17:53:21.125Z,100.00
2023-04-07T17:55:47.658Z,100.00
2023-04-07T17:58:14.618Z,100.00
2023-04-07T18:00:41.713Z,100.00
2023-04-07T18:03:08.656Z,100.00
2023-04-07T18:05:36.339Z,100.00
2023-04-07T18:08:02.947Z,100.00
2023-04-07T18:10:29.520Z,100.00
2023-04-07T18:12:56.184Z,100.00
2023-04-07T18:15:22.729Z,100.00
2023-04-07T18:17:53.054Z,100.00
2023-04-07T18:20:19.958Z,100.00
2023-04-07T18:22:47.322Z,100.00
2023-04-07T18:25:13.988Z,100.00
2023-04-07T18:27:40.523Z,100.00
2023-04-07T18:30:07.892Z,100.00
2023-04-07T18:32:34.466Z,100.00
2023-04-07T18:35:01.277Z,100.00
2023-04-07T18:37:29.530Z,100.00
2023-04-07T18:39:56.228Z,100.00
2023-04-07T18:42:22.816Z,100.00
2023-04-07T18:44:49.490Z,100.00
2023-04-07T18:47:16.161Z,100.00
2023-04-07T18:49:42.702Z,100.00
2023-04-07T18:52:09.446Z,100.00
2023-04-07T18:54:36.261Z,100.00
2023-04-07T18:57:02.847Z,100.00
2023-04-07T18:59:29.410Z,100.00
2023-04-07T19:01:56.525Z,100.00
2023-04-07T19:04:24.860Z,100.00
2023-04-07T19:06:52.056Z,100.00
2023-04-07T19:09:18.653Z,100.00
2023-04-07T19:11:45.497Z,100.00
2023-04-07T19:14:12.743Z,100.00
2023-04-07T19:16:39.445Z,100.00
2023-04-07T19:19:06.175Z,100.00
2023-04-07T19:21:32.845Z,100.00
2023-04-07T19:23:59.460Z,100.00
2023-04-07T19:26:27.872Z,100.00
2023-04-07T19:28:55.630Z,100.00
2023-04-07T19:31:22.323Z,100.00
2023-04-07T19:33:49.161Z,100.00
2023-04-07T19:36:16.171Z,100.00
2023-04-07T19:38:42.702Z,100.00
2023-04-07T19:41:09.948Z,100.00
2023-04-07T19:43:36.511Z,100.00
2023-04-07T19:46:03.781Z,100.00
2023-04-07T19:48:30.661Z,100.00
2023-04-07T19:50:57.185Z,100.00
2023-04-07T19:53:25.349Z,100.00
2023-04-07T19:55:52.154Z,100.00
2023-04-07T19:58:20.989Z,100.00
2023-04-07T20:00:50.576Z,100.00
2023-04-07T20:03:17.668Z,100.00
2023-04-07T20:05:44.570Z,100.00
2023-04-07T20:08:11.397Z,100.00
2023-04-07T20:10:37.947Z,100.00
2023-04-07T20:13:06.411Z,100.00
2023-04-07T20:15:33.097Z,100.00
2023-04-07T20:18:00.302Z,100.00
2023-04-07T20:20:26.867Z,100.00
2023-04-07T20:22:53.445Z,100.00
2023-04-07T20:25:20.113Z,100.00
2023-04-07T20:27:49.083Z,100.00
2023-04-07T20:30:16.282Z,100.00
2023-04-07T20:32:43.893Z,100.00
2023-04-07T20:35:11.923Z,100.00
2023-04-07T20:37:38.626Z,100.00
2023-04-07T20:40:06.126Z,100.00
2023-04-07T20:42:32.666Z,100.00
2023-04-07T20:45:03.680Z,100.00
2023-04-07T20:47:31.357Z,100.00
2023-04-07T20:49:58.736Z,100.00
2023-04-07T20:52:27.100Z,100.00
2023-04-07T20:54:53.651Z,100.00
2023-04-07T20:57:20.230Z,100.00
2023-04-07T20:59:46.730Z,100.00
2023-04-07T21:02:13.374Z,100.00
2023-04-07T21:04:40.049Z,100.00
2023-04-07T21:07:06.610Z,100.00
2023-04-07T21:09:33.151Z,100.00
2023-04-07T21:12:02.050Z,100.00
2023-04-07T21:14:28.650Z,100.00
2023-04-07T21:16:55.269Z,100.00
2023-04-07T21:19:22.246Z,100.00
2023-04-07T21:21:48.798Z,100.00
2023-04-07T21:24:15.504Z,100.00
2023-04-07T21:26:42.073Z,100.00
2023-04-07T21:29:08.610Z,100.00
2023-04-07T21:31:35.278Z,100.00
2023-04-07T21:34:01.893Z,100.00
2023-04-07T21:36:28.542Z,100.00
2023-04-07T21:38:55.223Z,100.00
2023-04-07T21:41:21.928Z,100.00
2023-04-07T21:43:48.425Z,100.00
2023-04-07T21:46:16.864Z,100.00
2023-04-07T21:48:43.494Z,100.00
2023-04-07T21:51:10.062Z,100.00
2023-04-07T21:53:36.769Z,100.00
2023-04-07T21:56:03.825Z,100.00
2023-04-07T21:58:30.536Z,100.00
2023-04-07T22:00:57.119Z,100.00
2023-04-07T22:03:23.925Z,100.00
2023-04-07T22:05:50.663Z,100.00
2023-04-07T22:08:17.720Z,100.00
2023-04-07T22:10:44.273Z,100.00
2023-04-07T22:13:10.790Z,100.00
2023-04-07T22:15:37.350Z,100.00
2023-04-07T22:18:03.957Z,100.00
2023-04-07T22:20:30.551Z,100.00
2023-04-07T22:22:57.718Z,100.00
2023-04-07T22:25:25.350Z,100.00
2023-04-07T22:27:52.793Z,100.00
2023-04-07T22:30:20.176Z,100.00
2023-04-07T22:32:48.001Z,100.00
2023-04-07T22:35:14.634Z,100.00
2023-04-07T22:37:41.203Z,100.00
2023-04-07T22:40:08.812Z,100.00
2023-04-07T22:42:35.566Z,100.00
2023-04-07T22:45:02.126Z,100.00
2023-04-07T22:47:28.713Z,100.00
2023-04-07T22:49:55.350Z,100.00
2023-04-07T22:52:22.053Z,100.00
2023-04-07T22:54:48.568Z,100.00
2023-04-07T22:57:15.395Z,100.00
2023-04-07T22:59:41.973Z,100.00
2023-04-07T23:02:08.588Z,100.00
2023-04-07T23:04:35.202Z,100.00
2023-04-07T23:07:02.271Z,100.00
2023-04-07T23:09:28.793Z,100.00
2023-04-07T23:11:56.847Z,100.00
2023-04-07T23:14:23.463Z,100.00
2023-04-07T23:16:50.596Z,100.00
2023-04-07T23:19:17.161Z,100.00
2023-04-07T23:21:43.781Z,100.00
2023-04-07T23:24:10.667Z,100.00
2023-04-07T23:26:37.254Z,100.00
2023-04-07T23:29:03.918Z,100.00
2023-04-07T23:31:31.116Z,100.00
2023-04-07T23:33:59.526Z,100.00
2023-04-07T23:36:27.272Z,100.00
2023-04-07T23:38:56.629Z,100.00
2023-04-07T23:41:23.536Z,100.00
2023-04-07T23:43:50.117Z,100.00
2023-04-07T23:46:16.726Z,100.00
2023-04-07T23:48:43.272Z,100.00
2023-04-07T23:51:09.868Z,100.00
2023-04-07T23:53:36.392Z,100.00
2023-04-07T23:56:02.989Z,100.00
2023-04-07T23:58:29.741Z,100.00
